sensor_id;sensor_type;location;lat;lon;timestamp;P1;durP1;ratioP1;P2;durP2;ratioP2
11616;SDS011;5864;52.998;9.068;2022-08-30T00:02:24;3.57;;;1.80;;
11616;SDS011;5864;52.998;9.068;2022-08-30T00:04:51;3.63;;;2.00;;
11616;SDS011;5864;52.998;9.068;2022-08-30T00:07:20;2.50;;;1.90;;
11616;SDS011;5864;52.998;9.068;2022-08-30T00:09:48;4.03;;;2.00;;
11616;SDS011;5864;52.998;9.068;2022-08-30T00:12:15;3.67;;;1.63;;
11616;SDS011;5864;52.998;9.068;2022-08-30T00:14:47;3.97;;;2.03;;
11616;SDS011;5864;52.998;9.068;2022-08-30T00:17:14;2.83;;;2.20;;
11616;SDS011;5864;52.998;9.068;2022-08-30T00:19:43;4.37;;;2.20;;
11616;SDS011;5864;52.998;9.068;2022-08-30T00:22:11;3.63;;;1.90;;
11616;SDS011;5864;52.998;9.068;2022-08-30T00:24:38;3.50;;;2.07;;
11616;SDS011;5864;52.998;9.068;2022-08-30T00:27:06;2.87;;;2.50;;
11616;SDS011;5864;52.998;9.068;2022-08-30T00:29:33;4.13;;;2.30;;
11616;SDS011;5864;52.998;9.068;2022-08-30T00:32:02;2.70;;;2.10;;
11616;SDS011;5864;52.998;9.068;2022-08-30T00:34:30;2.27;;;2.07;;
11616;SDS011;5864;52.998;9.068;2022-08-30T00:36:58;3.50;;;2.23;;
11616;SDS011;5864;52.998;9.068;2022-08-30T00:39:27;4.47;;;2.30;;
11616;SDS011;5864;52.998;9.068;2022-08-30T00:41:54;3.87;;;2.10;;
11616;SDS011;5864;52.998;9.068;2022-08-30T00:44:22;2.37;;;2.17;;
11616;SDS011;5864;52.998;9.068;2022-08-30T00:46:49;4.37;;;2.13;;
11616;SDS011;5864;52.998;9.068;2022-08-30T00:49:18;2.40;;;2.00;;
11616;SDS011;5864;52.998;9.068;2022-08-30T00:51:46;4.63;;;2.00;;
11616;SDS011;5864;52.998;9.068;2022-08-30T00:54:14;2.50;;;2.20;;
11616;SDS011;5864;52.998;9.068;2022-08-30T00:56:43;2.77;;;2.03;;
11616;SDS011;5864;52.998;9.068;2022-08-30T00:59:10;3.93;;;2.13;;
11616;SDS011;5864;52.998;9.068;2022-08-30T01:01:39;4.43;;;2.17;;
11616;SDS011;5864;52.998;9.068;2022-08-30T01:04:07;4.13;;;2.40;;
11616;SDS011;5864;52.998;9.068;2022-08-30T01:06:37;5.07;;;2.37;;
11616;SDS011;5864;52.998;9.068;2022-08-30T01:09:05;3.33;;;1.97;;
11616;SDS011;5864;52.998;9.068;2022-08-30T01:11:33;3.83;;;2.10;;
11616;SDS011;5864;52.998;9.068;2022-08-30T01:14:03;2.73;;;2.30;;
11616;SDS011;5864;52.998;9.068;2022-08-30T01:16:33;2.30;;;2.10;;
11616;SDS011;5864;52.998;9.068;2022-08-30T01:19:01;2.17;;;1.97;;
11616;SDS011;5864;52.998;9.068;2022-08-30T01:21:33;2.63;;;1.80;;
11616;SDS011;5864;52.998;9.068;2022-08-30T01:24:08;3.13;;;1.97;;
11616;SDS011;5864;52.998;9.068;2022-08-30T01:26:36;2.87;;;2.10;;
11616;SDS011;5864;52.998;9.068;2022-08-30T01:29:05;2.47;;;2.00;;
11616;SDS011;5864;52.998;9.068;2022-08-30T01:31:35;2.50;;;2.30;;
11616;SDS011;5864;52.998;9.068;2022-08-30T01:34:03;3.33;;;2.40;;
11616;SDS011;5864;52.998;9.068;2022-08-30T01:36:32;5.47;;;2.43;;
11616;SDS011;5864;52.998;9.068;2022-08-30T01:39:01;2.77;;;2.10;;
11616;SDS011;5864;52.998;9.068;2022-08-30T01:41:32;2.50;;;2.30;;
11616;SDS011;5864;52.998;9.068;2022-08-30T01:44:02;2.97;;;2.50;;
11616;SDS011;5864;52.998;9.068;2022-08-30T01:46:32;3.20;;;2.40;;
11616;SDS011;5864;52.998;9.068;2022-08-30T01:49:03;3.57;;;2.33;;
11616;SDS011;5864;52.998;9.068;2022-08-30T01:51:34;3.60;;;2.23;;
11616;SDS011;5864;52.998;9.068;2022-08-30T01:54:02;3.00;;;2.37;;
11616;SDS011;5864;52.998;9.068;2022-08-30T01:56:32;4.23;;;2.20;;
11616;SDS011;5864;52.998;9.068;2022-08-30T01:58:59;3.40;;;2.10;;
11616;SDS011;5864;52.998;9.068;2022-08-30T02:01:27;3.27;;;2.47;;
11616;SDS011;5864;52.998;9.068;2022-08-30T02:03:56;2.97;;;2.37;;
11616;SDS011;5864;52.998;9.068;2022-08-30T02:06:23;3.17;;;2.10;;
11616;SDS011;5864;52.998;9.068;2022-08-30T02:08:51;3.53;;;2.30;;
11616;SDS011;5864;52.998;9.068;2022-08-30T02:11:18;2.30;;;2.10;;
11616;SDS011;5864;52.998;9.068;2022-08-30T02:13:47;3.80;;;2.20;;
11616;SDS011;5864;52.998;9.068;2022-08-30T02:16:16;4.27;;;2.50;;
11616;SDS011;5864;52.998;9.068;2022-08-30T02:18:47;3.17;;;2.50;;
11616;SDS011;5864;52.998;9.068;2022-08-30T02:21:15;3.80;;;2.17;;
11616;SDS011;5864;52.998;9.068;2022-08-30T02:23:42;3.23;;;2.60;;
11616;SDS011;5864;52.998;9.068;2022-08-30T02:26:10;2.43;;;2.10;;
11616;SDS011;5864;52.998;9.068;2022-08-30T02:28:41;3.67;;;2.57;;
11616;SDS011;5864;52.998;9.068;2022-08-30T02:31:11;3.70;;;2.33;;
11616;SDS011;5864;52.998;9.068;2022-08-30T02:33:38;3.23;;;2.23;;
11616;SDS011;5864;52.998;9.068;2022-08-30T02:36:06;2.80;;;2.50;;
11616;SDS011;5864;52.998;9.068;2022-08-30T02:38:34;3.30;;;2.10;;
11616;SDS011;5864;52.998;9.068;2022-08-30T02:41:02;3.20;;;2.37;;
11616;SDS011;5864;52.998;9.068;2022-08-30T02:43:29;4.20;;;2.50;;
11616;SDS011;5864;52.998;9.068;2022-08-30T02:45:57;3.43;;;2.20;;
11616;SDS011;5864;52.998;9.068;2022-08-30T02:48:26;3.47;;;2.40;;
11616;SDS011;5864;52.998;9.068;2022-08-30T02:50:53;3.43;;;2.60;;
11616;SDS011;5864;52.998;9.068;2022-08-30T02:53:21;4.80;;;2.23;;
11616;SDS011;5864;52.998;9.068;2022-08-30T02:55:48;3.03;;;2.60;;
11616;SDS011;5864;52.998;9.068;2022-08-30T02:58:16;2.50;;;2.23;;
11616;SDS011;5864;52.998;9.068;2022-08-30T03:00:43;4.00;;;2.53;;
11616;SDS011;5864;52.998;9.068;2022-08-30T03:03:11;2.80;;;2.47;;
11616;SDS011;5864;52.998;9.068;2022-08-30T03:05:40;4.80;;;2.33;;
11616;SDS011;5864;52.998;9.068;2022-08-30T03:08:07;3.50;;;3.03;;
11616;SDS011;5864;52.998;9.068;2022-08-30T03:10:35;5.93;;;2.90;;
11616;SDS011;5864;52.998;9.068;2022-08-30T03:13:03;3.93;;;2.90;;
11616;SDS011;5864;52.998;9.068;2022-08-30T03:15:32;2.97;;;2.43;;
11616;SDS011;5864;52.998;9.068;2022-08-30T03:18:00;3.33;;;2.70;;
11616;SDS011;5864;52.998;9.068;2022-08-30T03:20:27;4.07;;;2.87;;
11616;SDS011;5864;52.998;9.068;2022-08-30T03:22:56;4.43;;;2.73;;
11616;SDS011;5864;52.998;9.068;2022-08-30T03:25:24;3.50;;;2.57;;
11616;SDS011;5864;52.998;9.068;2022-08-30T03:27:52;4.57;;;2.77;;
11616;SDS011;5864;52.998;9.068;2022-08-30T03:30:19;4.87;;;3.10;;
11616;SDS011;5864;52.998;9.068;2022-08-30T03:32:47;3.60;;;2.73;;
11616;SDS011;5864;52.998;9.068;2022-08-30T03:35:15;2.90;;;2.47;;
11616;SDS011;5864;52.998;9.068;2022-08-30T03:37:43;5.07;;;2.93;;
11616;SDS011;5864;52.998;9.068;2022-08-30T03:40:13;3.63;;;2.83;;
11616;SDS011;5864;52.998;9.068;2022-08-30T03:42:43;3.17;;;2.50;;
11616;SDS011;5864;52.998;9.068;2022-08-30T03:45:11;3.30;;;3.00;;
11616;SDS011;5864;52.998;9.068;2022-08-30T03:47:39;4.70;;;3.30;;
11616;SDS011;5864;52.998;9.068;2022-08-30T03:50:07;4.77;;;3.20;;
11616;SDS011;5864;52.998;9.068;2022-08-30T03:52:35;3.40;;;2.93;;
11616;SDS011;5864;52.998;9.068;2022-08-30T03:55:03;3.30;;;3.00;;
11616;SDS011;5864;52.998;9.068;2022-08-30T03:57:33;3.50;;;3.20;;
11616;SDS011;5864;52.998;9.068;2022-08-30T04:00:01;4.43;;;3.10;;
11616;SDS011;5864;52.998;9.068;2022-08-30T04:02:30;4.13;;;3.23;;
11616;SDS011;5864;52.998;9.068;2022-08-30T04:04:57;4.20;;;2.80;;
11616;SDS011;5864;52.998;9.068;2022-08-30T04:07:24;3.10;;;2.80;;
11616;SDS011;5864;52.998;9.068;2022-08-30T04:09:52;4.23;;;3.30;;
11616;SDS011;5864;52.998;9.068;2022-08-30T04:12:19;2.77;;;2.57;;
11616;SDS011;5864;52.998;9.068;2022-08-30T04:14:48;4.60;;;3.17;;
11616;SDS011;5864;52.998;9.068;2022-08-30T04:17:16;3.07;;;2.63;;
11616;SDS011;5864;52.998;9.068;2022-08-30T04:19:43;4.50;;;3.10;;
11616;SDS011;5864;52.998;9.068;2022-08-30T04:22:11;2.70;;;2.47;;
11616;SDS011;5864;52.998;9.068;2022-08-30T04:24:39;3.27;;;2.70;;
11616;SDS011;5864;52.998;9.068;2022-08-30T04:27:07;2.73;;;2.53;;
11616;SDS011;5864;52.998;9.068;2022-08-30T04:29:34;4.13;;;3.00;;
11616;SDS011;5864;52.998;9.068;2022-08-30T04:32:03;3.87;;;3.00;;
11616;SDS011;5864;52.998;9.068;2022-08-30T04:34:31;4.60;;;2.97;;
11616;SDS011;5864;52.998;9.068;2022-08-30T04:36:58;2.93;;;2.63;;
11616;SDS011;5864;52.998;9.068;2022-08-30T04:39:26;3.87;;;2.67;;
11616;SDS011;5864;52.998;9.068;2022-08-30T04:41:53;3.40;;;2.93;;
11616;SDS011;5864;52.998;9.068;2022-08-30T04:44:25;3.80;;;2.60;;
11616;SDS011;5864;52.998;9.068;2022-08-30T04:46:52;3.70;;;2.40;;
11616;SDS011;5864;52.998;9.068;2022-08-30T04:49:22;3.20;;;2.60;;
11616;SDS011;5864;52.998;9.068;2022-08-30T04:51:49;4.10;;;2.67;;
11616;SDS011;5864;52.998;9.068;2022-08-30T04:54:16;4.47;;;2.87;;
11616;SDS011;5864;52.998;9.068;2022-08-30T04:56:44;4.93;;;2.73;;
11616;SDS011;5864;52.998;9.068;2022-08-30T04:59:11;4.83;;;2.90;;
11616;SDS011;5864;52.998;9.068;2022-08-30T05:01:39;3.40;;;2.60;;
11616;SDS011;5864;52.998;9.068;2022-08-30T05:04:07;4.57;;;2.97;;
11616;SDS011;5864;52.998;9.068;2022-08-30T05:06:35;3.37;;;2.90;;
11616;SDS011;5864;52.998;9.068;2022-08-30T05:09:03;3.77;;;3.20;;
11616;SDS011;5864;52.998;9.068;2022-08-30T05:11:30;4.30;;;2.50;;
11616;SDS011;5864;52.998;9.068;2022-08-30T05:13:58;4.37;;;2.60;;
11616;SDS011;5864;52.998;9.068;2022-08-30T05:16:25;4.77;;;2.80;;
11616;SDS011;5864;52.998;9.068;2022-08-30T05:18:53;3.80;;;3.30;;
11616;SDS011;5864;52.998;9.068;2022-08-30T05:21:22;4.33;;;2.80;;
11616;SDS011;5864;52.998;9.068;2022-08-30T05:23:53;2.77;;;2.53;;
11616;SDS011;5864;52.998;9.068;2022-08-30T05:26:23;2.83;;;2.63;;
11616;SDS011;5864;52.998;9.068;2022-08-30T05:28:53;3.20;;;2.83;;
11616;SDS011;5864;52.998;9.068;2022-08-30T05:31:22;3.07;;;2.77;;
11616;SDS011;5864;52.998;9.068;2022-08-30T05:33:52;3.60;;;2.60;;
11616;SDS011;5864;52.998;9.068;2022-08-30T05:36:22;4.53;;;2.77;;
11616;SDS011;5864;52.998;9.068;2022-08-30T05:38:53;3.77;;;2.47;;
11616;SDS011;5864;52.998;9.068;2022-08-30T05:41:22;3.90;;;2.83;;
11616;SDS011;5864;52.998;9.068;2022-08-30T05:43:51;3.77;;;2.60;;
11616;SDS011;5864;52.998;9.068;2022-08-30T05:46:18;3.53;;;2.60;;
11616;SDS011;5864;52.998;9.068;2022-08-30T05:48:46;7.70;;;3.17;;
11616;SDS011;5864;52.998;9.068;2022-08-30T05:51:16;4.80;;;2.93;;
11616;SDS011;5864;52.998;9.068;2022-08-30T05:53:45;3.13;;;2.70;;
11616;SDS011;5864;52.998;9.068;2022-08-30T05:56:15;4.90;;;2.53;;
11616;SDS011;5864;52.998;9.068;2022-08-30T05:58:44;4.17;;;2.60;;
11616;SDS011;5864;52.998;9.068;2022-08-30T06:01:22;3.57;;;2.43;;
11616;SDS011;5864;52.998;9.068;2022-08-30T06:03:51;3.73;;;2.73;;
11616;SDS011;5864;52.998;9.068;2022-08-30T06:06:19;3.57;;;2.43;;
11616;SDS011;5864;52.998;9.068;2022-08-30T06:08:47;2.70;;;2.50;;
11616;SDS011;5864;52.998;9.068;2022-08-30T06:11:18;2.57;;;2.37;;
11616;SDS011;5864;52.998;9.068;2022-08-30T06:13:47;4.03;;;2.40;;
11616;SDS011;5864;52.998;9.068;2022-08-30T06:16:17;4.23;;;2.67;;
11616;SDS011;5864;52.998;9.068;2022-08-30T06:18:45;3.10;;;2.70;;
11616;SDS011;5864;52.998;9.068;2022-08-30T06:21:14;3.47;;;2.87;;
11616;SDS011;5864;52.998;9.068;2022-08-30T06:23:43;5.03;;;2.57;;
11616;SDS011;5864;52.998;9.068;2022-08-30T06:26:10;3.30;;;2.40;;
11616;SDS011;5864;52.998;9.068;2022-08-30T06:28:39;7.87;;;2.97;;
11616;SDS011;5864;52.998;9.068;2022-08-30T06:31:07;4.20;;;2.30;;
11616;SDS011;5864;52.998;9.068;2022-08-30T06:33:36;3.57;;;2.60;;
11616;SDS011;5864;52.998;9.068;2022-08-30T06:36:04;4.23;;;2.60;;
11616;SDS011;5864;52.998;9.068;2022-08-30T06:38:33;4.33;;;2.83;;
11616;SDS011;5864;52.998;9.068;2022-08-30T06:41:03;4.13;;;2.53;;
11616;SDS011;5864;52.998;9.068;2022-08-30T06:43:32;4.43;;;2.80;;
11616;SDS011;5864;52.998;9.068;2022-08-30T06:46:02;3.53;;;2.50;;
11616;SDS011;5864;52.998;9.068;2022-08-30T06:48:30;5.13;;;3.10;;
11616;SDS011;5864;52.998;9.068;2022-08-30T06:50:58;5.27;;;3.13;;
11616;SDS011;5864;52.998;9.068;2022-08-30T06:53:26;3.37;;;2.33;;
11616;SDS011;5864;52.998;9.068;2022-08-30T06:55:55;3.57;;;2.00;;
11616;SDS011;5864;52.998;9.068;2022-08-30T06:58:23;4.23;;;2.80;;
11616;SDS011;5864;52.998;9.068;2022-08-30T07:00:51;5.03;;;2.67;;
11616;SDS011;5864;52.998;9.068;2022-08-30T07:03:20;9.60;;;3.00;;
11616;SDS011;5864;52.998;9.068;2022-08-30T07:05:48;3.60;;;2.20;;
11616;SDS011;5864;52.998;9.068;2022-08-30T07:08:16;3.07;;;2.23;;
11616;SDS011;5864;52.998;9.068;2022-08-30T07:10:43;3.30;;;2.20;;
11616;SDS011;5864;52.998;9.068;2022-08-30T07:13:11;3.30;;;2.37;;
11616;SDS011;5864;52.998;9.068;2022-08-30T07:15:39;2.70;;;2.50;;
11616;SDS011;5864;52.998;9.068;2022-08-30T07:18:07;3.93;;;2.47;;
11616;SDS011;5864;52.998;9.068;2022-08-30T07:20:54;3.73;;;2.40;;
11616;SDS011;5864;52.998;9.068;2022-08-30T07:23:22;3.83;;;2.60;;
11616;SDS011;5864;52.998;9.068;2022-08-30T07:25:49;2.80;;;2.40;;
11616;SDS011;5864;52.998;9.068;2022-08-30T07:28:17;4.27;;;2.70;;
11616;SDS011;5864;52.998;9.068;2022-08-30T07:30:45;4.97;;;2.63;;
11616;SDS011;5864;52.998;9.068;2022-08-30T07:33:12;4.00;;;2.80;;
11616;SDS011;5864;52.998;9.068;2022-08-30T07:35:40;3.63;;;2.50;;
11616;SDS011;5864;52.998;9.068;2022-08-30T07:38:12;5.33;;;2.50;;
11616;SDS011;5864;52.998;9.068;2022-08-30T07:40:40;3.70;;;2.60;;
11616;SDS011;5864;52.998;9.068;2022-08-30T07:43:08;5.07;;;2.77;;
11616;SDS011;5864;52.998;9.068;2022-08-30T07:45:35;4.13;;;2.30;;
11616;SDS011;5864;52.998;9.068;2022-08-30T07:48:04;4.93;;;2.77;;
11616;SDS011;5864;52.998;9.068;2022-08-30T07:50:32;2.87;;;2.27;;
11616;SDS011;5864;52.998;9.068;2022-08-30T07:52:59;2.90;;;2.30;;
11616;SDS011;5864;52.998;9.068;2022-08-30T07:55:28;5.13;;;2.50;;
11616;SDS011;5864;52.998;9.068;2022-08-30T07:57:55;3.93;;;2.13;;
11616;SDS011;5864;52.998;9.068;2022-08-30T08:00:23;3.97;;;2.60;;
11616;SDS011;5864;52.998;9.068;2022-08-30T08:02:50;2.97;;;2.33;;
11616;SDS011;5864;52.998;9.068;2022-08-30T08:05:18;2.97;;;2.13;;
11616;SDS011;5864;52.998;9.068;2022-08-30T08:07:46;3.47;;;2.00;;
11616;SDS011;5864;52.998;9.068;2022-08-30T08:10:14;3.83;;;2.27;;
11616;SDS011;5864;52.998;9.068;2022-08-30T08:12:43;2.10;;;1.90;;
11616;SDS011;5864;52.998;9.068;2022-08-30T08:15:11;3.57;;;2.10;;
11616;SDS011;5864;52.998;9.068;2022-08-30T08:17:38;3.13;;;2.20;;
11616;SDS011;5864;52.998;9.068;2022-08-30T08:20:06;4.53;;;2.43;;
11616;SDS011;5864;52.998;9.068;2022-08-30T08:22:34;6.37;;;2.43;;
11616;SDS011;5864;52.998;9.068;2022-08-30T08:25:01;3.67;;;2.40;;
11616;SDS011;5864;52.998;9.068;2022-08-30T08:27:29;3.43;;;2.07;;
11616;SDS011;5864;52.998;9.068;2022-08-30T08:29:58;2.30;;;2.10;;
11616;SDS011;5864;52.998;9.068;2022-08-30T08:32:25;4.20;;;2.30;;
11616;SDS011;5864;52.998;9.068;2022-08-30T08:34:53;3.03;;;2.50;;
11616;SDS011;5864;52.998;9.068;2022-08-30T08:37:20;2.83;;;2.10;;
11616;SDS011;5864;52.998;9.068;2022-08-30T08:39:48;2.90;;;2.23;;
11616;SDS011;5864;52.998;9.068;2022-08-30T08:42:18;4.87;;;2.30;;
11616;SDS011;5864;52.998;9.068;2022-08-30T08:44:55;3.77;;;1.90;;
11616;SDS011;5864;52.998;9.068;2022-08-30T08:47:31;5.43;;;2.00;;
11616;SDS011;5864;52.998;9.068;2022-08-30T08:50:04;3.67;;;1.60;;
11616;SDS011;5864;52.998;9.068;2022-08-30T08:52:40;5.23;;;2.23;;
11616;SDS011;5864;52.998;9.068;2022-08-30T08:55:33;3.57;;;2.00;;
11616;SDS011;5864;52.998;9.068;2022-08-30T08:58:01;3.73;;;2.30;;
11616;SDS011;5864;52.998;9.068;2022-08-30T09:00:30;2.60;;;2.20;;
11616;SDS011;5864;52.998;9.068;2022-08-30T09:02:59;2.50;;;1.80;;
11616;SDS011;5864;52.998;9.068;2022-08-30T09:05:28;2.60;;;2.00;;
11616;SDS011;5864;52.998;9.068;2022-08-30T09:08:05;2.73;;;1.90;;
11616;SDS011;5864;52.998;9.068;2022-08-30T09:10:34;5.00;;;2.13;;
11616;SDS011;5864;52.998;9.068;2022-08-30T09:13:01;1.90;;;1.70;;
11616;SDS011;5864;52.998;9.068;2022-08-30T09:15:31;3.40;;;1.77;;
11616;SDS011;5864;52.998;9.068;2022-08-30T09:18:01;3.33;;;2.00;;
11616;SDS011;5864;52.998;9.068;2022-08-30T09:20:30;3.23;;;2.00;;
11616;SDS011;5864;52.998;9.068;2022-08-30T09:23:10;2.30;;;1.87;;
11616;SDS011;5864;52.998;9.068;2022-08-30T09:25:52;2.50;;;2.27;;
11616;SDS011;5864;52.998;9.068;2022-08-30T09:28:22;2.80;;;2.00;;
11616;SDS011;5864;52.998;9.068;2022-08-30T09:31:03;3.13;;;1.73;;
11616;SDS011;5864;52.998;9.068;2022-08-30T09:33:32;2.70;;;1.80;;
11616;SDS011;5864;52.998;9.068;2022-08-30T09:36:09;3.47;;;2.10;;
11616;SDS011;5864;52.998;9.068;2022-08-30T09:38:41;2.67;;;1.70;;
11616;SDS011;5864;52.998;9.068;2022-08-30T09:41:26;2.77;;;1.87;;
11616;SDS011;5864;52.998;9.068;2022-08-30T09:44:03;1.93;;;1.60;;
11616;SDS011;5864;52.998;9.068;2022-08-30T09:46:43;2.60;;;1.77;;
11616;SDS011;5864;52.998;9.068;2022-08-30T09:49:29;2.40;;;1.67;;
11616;SDS011;5864;52.998;9.068;2022-08-30T09:52:11;3.73;;;1.80;;
11616;SDS011;5864;52.998;9.068;2022-08-30T09:54:58;4.00;;;1.70;;
11616;SDS011;5864;52.998;9.068;2022-08-30T09:57:41;1.97;;;1.40;;
11616;SDS011;5864;52.998;9.068;2022-08-30T10:00:18;2.07;;;1.87;;
11616;SDS011;5864;52.998;9.068;2022-08-30T10:02:51;2.33;;;1.40;;
11616;SDS011;5864;52.998;9.068;2022-08-30T10:05:26;3.40;;;1.70;;
11616;SDS011;5864;52.998;9.068;2022-08-30T10:08:02;1.73;;;1.27;;
11616;SDS011;5864;52.998;9.068;2022-08-30T10:10:39;3.00;;;1.60;;
11616;SDS011;5864;52.998;9.068;2022-08-30T10:13:19;1.83;;;1.30;;
11616;SDS011;5864;52.998;9.068;2022-08-30T10:16:07;1.57;;;1.47;;
11616;SDS011;5864;52.998;9.068;2022-08-30T10:18:49;1.27;;;1.10;;
11616;SDS011;5864;52.998;9.068;2022-08-30T10:21:25;3.40;;;1.50;;
11616;SDS011;5864;52.998;9.068;2022-08-30T10:24:00;2.00;;;1.30;;
11616;SDS011;5864;52.998;9.068;2022-08-30T10:26:30;2.97;;;1.53;;
11616;SDS011;5864;52.998;9.068;2022-08-30T10:29:03;1.83;;;1.40;;
11616;SDS011;5864;52.998;9.068;2022-08-30T10:31:35;1.83;;;1.60;;
11616;SDS011;5864;52.998;9.068;2022-08-30T10:34:11;3.17;;;1.40;;
11616;SDS011;5864;52.998;9.068;2022-08-30T10:36:43;2.67;;;1.43;;
11616;SDS011;5864;52.998;9.068;2022-08-30T10:39:16;1.57;;;1.20;;
11616;SDS011;5864;52.998;9.068;2022-08-30T10:41:48;2.70;;;1.63;;
11616;SDS011;5864;52.998;9.068;2022-08-30T10:44:21;3.77;;;1.33;;
11616;SDS011;5864;52.998;9.068;2022-08-30T10:47:03;4.10;;;1.27;;
11616;SDS011;5864;52.998;9.068;2022-08-30T10:49:41;3.30;;;1.30;;
11616;SDS011;5864;52.998;9.068;2022-08-30T10:52:22;2.33;;;1.30;;
11616;SDS011;5864;52.998;9.068;2022-08-30T10:54:56;2.27;;;1.40;;
11616;SDS011;5864;52.998;9.068;2022-08-30T10:57:27;1.50;;;1.30;;
11616;SDS011;5864;52.998;9.068;2022-08-30T10:59:56;1.90;;;1.50;;
11616;SDS011;5864;52.998;9.068;2022-08-30T11:02:34;1.60;;;1.47;;
11616;SDS011;5864;52.998;9.068;2022-08-30T11:05:26;3.87;;;1.50;;
11616;SDS011;5864;52.998;9.068;2022-08-30T11:08:24;1.83;;;1.10;;
11616;SDS011;5864;52.998;9.068;2022-08-30T11:11:13;2.60;;;1.27;;
11616;SDS011;5864;52.998;9.068;2022-08-30T11:14:22;1.47;;;1.37;;
11616;SDS011;5864;52.998;9.068;2022-08-30T11:16:51;1.53;;;1.10;;
11616;SDS011;5864;52.998;9.068;2022-08-30T11:19:21;1.40;;;1.30;;
11616;SDS011;5864;52.998;9.068;2022-08-30T11:21:52;2.60;;;1.20;;
11616;SDS011;5864;52.998;9.068;2022-08-30T11:33:38;2.60;;;1.30;;
11616;SDS011;5864;52.998;9.068;2022-08-30T11:36:10;1.63;;;1.20;;
11616;SDS011;5864;52.998;9.068;2022-08-30T11:39:06;1.23;;;1.10;;
11616;SDS011;5864;52.998;9.068;2022-08-30T11:41:36;3.23;;;1.23;;
11616;SDS011;5864;52.998;9.068;2022-08-30T11:46:54;4.00;;;1.33;;
11616;SDS011;5864;52.998;9.068;2022-08-30T11:52:14;1.10;;;1.00;;
11616;SDS011;5864;52.998;9.068;2022-08-30T11:55:01;1.10;;;1.00;;
11616;SDS011;5864;52.998;9.068;2022-08-30T11:57:41;2.20;;;1.17;;
11616;SDS011;5864;52.998;9.068;2022-08-30T12:00:24;1.80;;;1.03;;
11616;SDS011;5864;52.998;9.068;2022-08-30T12:02:55;1.47;;;1.10;;
11616;SDS011;5864;52.998;9.068;2022-08-30T12:08:42;1.93;;;1.07;;
11616;SDS011;5864;52.998;9.068;2022-08-30T12:17:23;1.37;;;1.07;;
11616;SDS011;5864;52.998;9.068;2022-08-30T12:20:19;1.50;;;1.10;;
11616;SDS011;5864;52.998;9.068;2022-08-30T12:22:49;1.30;;;1.20;;
11616;SDS011;5864;52.998;9.068;2022-08-30T12:25:21;1.10;;;1.00;;
11616;SDS011;5864;52.998;9.068;2022-08-30T12:28:06;1.90;;;1.30;;
11616;SDS011;5864;52.998;9.068;2022-08-30T12:30:37;1.83;;;1.20;;
11616;SDS011;5864;52.998;9.068;2022-08-30T12:33:05;2.20;;;1.20;;
11616;SDS011;5864;52.998;9.068;2022-08-30T12:35:36;1.90;;;1.03;;
11616;SDS011;5864;52.998;9.068;2022-08-30T12:38:06;1.40;;;1.10;;
11616;SDS011;5864;52.998;9.068;2022-08-30T12:40:49;1.30;;;1.20;;
11616;SDS011;5864;52.998;9.068;2022-08-30T12:43:22;1.50;;;1.40;;
11616;SDS011;5864;52.998;9.068;2022-08-30T12:45:56;1.20;;;1.10;;
11616;SDS011;5864;52.998;9.068;2022-08-30T12:48:28;1.13;;;1.00;;
11616;SDS011;5864;52.998;9.068;2022-08-30T12:51:01;3.53;;;1.13;;
11616;SDS011;5864;52.998;9.068;2022-08-30T12:53:32;2.70;;;1.33;;
11616;SDS011;5864;52.998;9.068;2022-08-30T12:56:03;2.73;;;1.00;;
11616;SDS011;5864;52.998;9.068;2022-08-30T12:58:38;5.13;;;1.10;;
11616;SDS011;5864;52.998;9.068;2022-08-30T13:01:13;1.70;;;0.97;;
11616;SDS011;5864;52.998;9.068;2022-08-30T13:03:58;1.70;;;1.10;;
11616;SDS011;5864;52.998;9.068;2022-08-30T13:06:47;0.87;;;0.87;;
11616;SDS011;5864;52.998;9.068;2022-08-30T13:09:20;1.50;;;1.00;;
11616;SDS011;5864;52.998;9.068;2022-08-30T13:11:51;1.10;;;1.00;;
11616;SDS011;5864;52.998;9.068;2022-08-30T13:14:27;1.57;;;1.00;;
11616;SDS011;5864;52.998;9.068;2022-08-30T13:17:05;1.43;;;0.93;;
11616;SDS011;5864;52.998;9.068;2022-08-30T13:19:37;1.93;;;1.10;;
11616;SDS011;5864;52.998;9.068;2022-08-30T13:22:06;1.33;;;0.90;;
11616;SDS011;5864;52.998;9.068;2022-08-30T13:24:51;1.20;;;1.10;;
11616;SDS011;5864;52.998;9.068;2022-08-30T13:27:19;2.67;;;0.90;;
11616;SDS011;5864;52.998;9.068;2022-08-30T13:29:46;1.83;;;0.90;;
11616;SDS011;5864;52.998;9.068;2022-08-30T13:32:15;3.70;;;1.03;;
11616;SDS011;5864;52.998;9.068;2022-08-30T13:34:43;1.20;;;0.93;;
11616;SDS011;5864;52.998;9.068;2022-08-30T13:37:12;1.57;;;0.90;;
11616;SDS011;5864;52.998;9.068;2022-08-30T13:39:41;1.53;;;0.90;;
11616;SDS011;5864;52.998;9.068;2022-08-30T13:42:09;1.40;;;1.00;;
11616;SDS011;5864;52.998;9.068;2022-08-30T13:44:37;1.00;;;0.90;;
11616;SDS011;5864;52.998;9.068;2022-08-30T13:47:04;1.17;;;1.03;;
11616;SDS011;5864;52.998;9.068;2022-08-30T13:49:34;1.37;;;1.00;;
11616;SDS011;5864;52.998;9.068;2022-08-30T13:52:04;3.73;;;0.83;;
11616;SDS011;5864;52.998;9.068;2022-08-30T13:54:33;1.63;;;0.87;;
11616;SDS011;5864;52.998;9.068;2022-08-30T13:57:01;1.73;;;0.90;;
11616;SDS011;5864;52.998;9.068;2022-08-30T13:59:29;1.23;;;0.90;;
11616;SDS011;5864;52.998;9.068;2022-08-30T14:01:58;2.03;;;1.03;;
11616;SDS011;5864;52.998;9.068;2022-08-30T14:04:27;1.63;;;1.03;;
11616;SDS011;5864;52.998;9.068;2022-08-30T14:06:56;1.70;;;0.87;;
11616;SDS011;5864;52.998;9.068;2022-08-30T14:09:23;1.40;;;1.00;;
11616;SDS011;5864;52.998;9.068;2022-08-30T14:11:51;1.33;;;0.93;;
11616;SDS011;5864;52.998;9.068;2022-08-30T14:14:18;2.77;;;0.93;;
11616;SDS011;5864;52.998;9.068;2022-08-30T14:16:45;0.80;;;0.80;;
11616;SDS011;5864;52.998;9.068;2022-08-30T14:19:14;1.30;;;1.10;;
11616;SDS011;5864;52.998;9.068;2022-08-30T14:21:42;1.00;;;1.00;;
11616;SDS011;5864;52.998;9.068;2022-08-30T14:24:11;3.50;;;0.80;;
11616;SDS011;5864;52.998;9.068;2022-08-30T14:26:40;3.23;;;1.60;;
11616;SDS011;5864;52.998;9.068;2022-08-30T14:29:11;1.77;;;1.10;;
11616;SDS011;5864;52.998;9.068;2022-08-30T14:31:42;1.40;;;1.20;;
11616;SDS011;5864;52.998;9.068;2022-08-30T14:34:19;8.20;;;1.30;;
11616;SDS011;5864;52.998;9.068;2022-08-30T14:36:47;6.93;;;1.50;;
11616;SDS011;5864;52.998;9.068;2022-08-30T14:39:17;4.80;;;1.10;;
11616;SDS011;5864;52.998;9.068;2022-08-30T14:41:47;5.00;;;1.60;;
11616;SDS011;5864;52.998;9.068;2022-08-30T14:44:16;3.77;;;1.43;;
11616;SDS011;5864;52.998;9.068;2022-08-30T14:46:46;11.00;;;1.40;;
11616;SDS011;5864;52.998;9.068;2022-08-30T14:49:14;3.03;;;1.17;;
11616;SDS011;5864;52.998;9.068;2022-08-30T14:51:42;6.23;;;1.20;;
11616;SDS011;5864;52.998;9.068;2022-08-30T14:54:13;1.30;;;1.07;;
11616;SDS011;5864;52.998;9.068;2022-08-30T14:56:43;3.77;;;0.97;;
11616;SDS011;5864;52.998;9.068;2022-08-30T14:59:14;1.90;;;1.00;;
11616;SDS011;5864;52.998;9.068;2022-08-30T15:01:49;6.80;;;1.00;;
11616;SDS011;5864;52.998;9.068;2022-08-30T15:04:18;18.50;;;2.47;;
11616;SDS011;5864;52.998;9.068;2022-08-30T15:06:46;1.43;;;0.93;;
11616;SDS011;5864;52.998;9.068;2022-08-30T15:09:15;3.80;;;1.10;;
11616;SDS011;5864;52.998;9.068;2022-08-30T15:11:45;1.60;;;0.90;;
11616;SDS011;5864;52.998;9.068;2022-08-30T15:14:13;1.83;;;1.10;;
11616;SDS011;5864;52.998;9.068;2022-08-30T15:16:41;1.27;;;1.00;;
11616;SDS011;5864;52.998;9.068;2022-08-30T15:19:11;1.17;;;0.93;;
11616;SDS011;5864;52.998;9.068;2022-08-30T15:21:40;2.30;;;1.00;;
11616;SDS011;5864;52.998;9.068;2022-08-30T15:24:10;1.03;;;0.90;;
11616;SDS011;5864;52.998;9.068;2022-08-30T15:26:40;1.87;;;1.10;;
11616;SDS011;5864;52.998;9.068;2022-08-30T15:29:10;3.50;;;1.40;;
11616;SDS011;5864;52.998;9.068;2022-08-30T15:31:39;1.00;;;0.93;;
11616;SDS011;5864;52.998;9.068;2022-08-30T15:34:08;1.37;;;1.10;;
11616;SDS011;5864;52.998;9.068;2022-08-30T15:36:36;1.60;;;1.00;;
11616;SDS011;5864;52.998;9.068;2022-08-30T15:39:05;0.97;;;0.90;;
11616;SDS011;5864;52.998;9.068;2022-08-30T15:41:36;1.70;;;0.90;;
11616;SDS011;5864;52.998;9.068;2022-08-30T15:44:05;1.40;;;1.30;;
11616;SDS011;5864;52.998;9.068;2022-08-30T15:46:35;1.40;;;1.30;;